Capitol Logistics 8039

Operating for GTI



ETAR
Ramstein Air Force Base
Ramstein, DE
KBWI
Baltimore/Washington International Thurgood Marshall Airport
Baltimore, US

Activity Log

Date Flight Route Aircraft Duration
No Flights Yet

Route Details

Aircraft Information
Primary: Boeing 767-300BDSF
Backup: Not Available
Route Data
Distance: 3485nm
Duration: 9h 25m
Recm'd Route: 5400N/02000W 5300N/03000W 5000N/04000W 4700N/05000W PORTI N166A WHALE ACK Q430 COPES Q75 MXE NUGGY TRISH3
Origin Wx: ETAR 180256Z AUTO 00000KT 9999 OVC043 05/01 A3012 RMK AO2 SLP208 T00520008 56008 FZRANO $
Dest. Wx: KBWI 180254Z 00000KT 10SM FEW110 SCT200 10/03 A2986 RMK AO2 SLP111 T01000033 51012
Notes: USTRANSCOM CONTRACT FLIGHT | 1X PER WEEK | PAYLOAD LIMITED | ETOPS